Time;durP1;ratioP1;P1;durP2;ratioP2;P2;SDS_P1;SDS_P2;PMS_P1;PMS_P2;Temp;Humidity;BMP_temperature;BMP_pressure;BME280_temperature;BME280_humidity;BME280_pressure;Samples;Min_cycle;Max_cycle;Signal;HPM_P1;HPM_P2
2024/01/30 00:02:09;;;;;;;8.43;6.07;;;;;;;;;;6275883;22;20187;-54
2024/01/30 00:04:35;;;;;;;5.77;5.10;;;;;;;;;;6244227;22;20200;-56
2024/01/30 00:07:01;;;;;;;7.73;5.80;;;;;;;;;;6244997;22;20347;-60
2024/01/30 00:09:27;;;;;;;15.53;6.03;;;;;;;;;;6246564;22;20151;-60
2024/01/30 00:11:53;;;;;;;7.30;5.10;;;;;;;;;;6247015;22;20132;-54
2024/01/30 00:14:19;;;;;;;7.20;4.83;;;;;;;;;;6247205;22;20311;-52
2024/01/30 00:16:45;;;;;;;7.83;4.80;;;;;;;;;;6273433;22;20277;-55
2024/01/30 00:19:11;;;;;;;5.97;5.00;;;;;;;;;;6245374;22;20506;-56
2024/01/30 00:21:37;;;;;;;7.83;5.63;;;;;;;;;;6245730;22;20561;-56
2024/01/30 00:24:04;;;;;;;7.43;5.33;;;;;;;;;;6273657;22;20534;-51
2024/01/30 00:26:30;;;;;;;8.67;5.70;;;;;;;;;;6272345;22;20143;-56
2024/01/30 00:28:56;;;;;;;9.20;5.60;;;;;;;;;;6246904;22;20144;-54
2024/01/30 00:31:22;;;;;;;5.73;4.77;;;;;;;;;;6246348;22;20179;-56
2024/01/30 00:33:48;;;;;;;7.90;5.00;;;;;;;;;;6245838;22;20537;-53
2024/01/30 00:36:14;;;;;;;7.07;5.23;;;;;;;;;;6246095;22;20144;-50
2024/01/30 00:38:40;;;;;;;10.97;5.40;;;;;;;;;;6246893;22;20148;-52
2024/01/30 00:41:07;;;;;;;12.00;5.60;;;;;;;;;;6246226;22;20477;-53
2024/01/30 00:43:33;;;;;;;7.47;5.17;;;;;;;;;;6245942;22;20136;-55
2024/01/30 00:45:59;;;;;;;9.80;5.83;;;;;;;;;;6245645;22;20133;-54
2024/01/30 00:48:25;;;;;;;12.47;6.57;;;;;;;;;;6245653;22;20873;-53
2024/01/30 00:50:51;;;;;;;6.37;4.80;;;;;;;;;;6272799;22;20155;-52
2024/01/30 00:53:17;;;;;;;7.07;4.93;;;;;;;;;;6245452;22;20435;-56
2024/01/30 00:55:43;;;;;;;8.53;4.90;;;;;;;;;;6245970;22;20148;-57
2024/01/30 00:58:09;;;;;;;7.13;4.83;;;;;;;;;;6246535;22;20482;-54
2024/01/30 01:00:35;;;;;;;7.00;5.00;;;;;;;;;;6246679;22;20213;-54
2024/01/30 01:03:01;;;;;;;6.87;4.83;;;;;;;;;;6222448;23;20200;-56
2024/01/30 01:05:26;;;;;;;7.53;5.20;;;;;;;;;;6210692;23;20231;-51
2024/01/30 01:07:53;;;;;;;6.33;4.97;;;;;;;;;;6210940;23;20236;-52
2024/01/30 01:10:18;;;;;;;6.83;4.50;;;;;;;;;;6210534;23;20145;-50
2024/01/30 01:12:45;;;;;;;6.33;4.80;;;;;;;;;;6210531;23;20152;-52
2024/01/30 01:15:11;;;;;;;8.47;4.80;;;;;;;;;;6212038;23;20201;-54
2024/01/30 01:17:37;;;;;;;6.33;4.20;;;;;;;;;;6210254;23;20172;-55
2024/01/30 01:20:05;;;;;;;6.17;4.77;;;;;;;;;;6210642;23;20442;-54
2024/01/30 01:22:31;;;;;;;6.40;4.37;;;;;;;;;;6210707;23;20526;-54
2024/01/30 01:24:57;;;;;;;7.53;5.60;;;;;;;;;;6211277;23;20609;-53
2024/01/30 01:27:23;;;;;;;9.20;5.00;;;;;;;;;;6209844;23;20458;-49
2024/01/30 01:29:49;;;;;;;9.33;5.60;;;;;;;;;;6211202;23;20137;-54
2024/01/30 01:32:16;;;;;;;6.30;4.60;;;;;;;;;;6210082;23;20445;-53
2024/01/30 01:34:42;;;;;;;5.80;4.60;;;;;;;;;;6210377;23;20149;-53
2024/01/30 01:37:08;;;;;;;4.83;4.20;;;;;;;;;;6211920;23;20130;-54
2024/01/30 01:39:34;;;;;;;8.90;4.80;;;;;;;;;;6211961;23;20237;-52
2024/01/30 01:41:59;;;;;;;6.73;4.90;;;;;;;;;;6212347;23;20150;-55
2024/01/30 01:44:25;;;;;;;5.83;4.60;;;;;;;;;;6211110;23;20213;-54
2024/01/30 01:46:52;;;;;;;8.03;5.27;;;;;;;;;;6211607;23;20130;-53
2024/01/30 01:49:19;;;;;;;7.30;5.23;;;;;;;;;;6212166;23;20534;-53
2024/01/30 01:51:45;;;;;;;7.07;5.50;;;;;;;;;;6212119;23;20161;-55
2024/01/30 01:54:12;;;;;;;7.97;5.10;;;;;;;;;;6211665;23;20153;-51
2024/01/30 01:56:38;;;;;;;7.57;4.73;;;;;;;;;;6213150;23;20212;-54
2024/01/30 01:59:08;;;;;;;7.00;5.53;;;;;;;;;;6210906;23;20153;-51
2024/01/30 02:01:34;;;;;;;10.57;4.73;;;;;;;;;;6212059;22;20126;-56
2024/01/30 02:04:00;;;;;;;8.00;5.30;;;;;;;;;;6244993;22;20172;-55
2024/01/30 02:06:27;;;;;;;7.80;5.47;;;;;;;;;;6246915;22;20206;-56
2024/01/30 02:08:53;;;;;;;7.17;4.80;;;;;;;;;;6245513;22;20152;-56
2024/01/30 02:11:19;;;;;;;8.10;5.37;;;;;;;;;;6246277;22;20166;-54
2024/01/30 02:13:45;;;;;;;6.07;4.87;;;;;;;;;;6246814;22;20140;-54
2024/01/30 02:16:11;;;;;;;7.67;5.20;;;;;;;;;;6246674;22;20491;-53
2024/01/30 02:18:41;;;;;;;7.03;5.00;;;;;;;;;;6246852;22;20197;-54
2024/01/30 02:21:08;;;;;;;6.60;5.20;;;;;;;;;;6245791;22;20145;-53
2024/01/30 02:23:34;;;;;;;6.27;4.93;;;;;;;;;;6243877;22;20170;-55
2024/01/30 02:26:00;;;;;;;7.20;4.67;;;;;;;;;;6243244;22;20609;-53
2024/01/30 02:28:27;;;;;;;7.90;5.57;;;;;;;;;;6242864;22;20155;-53
2024/01/30 02:30:54;;;;;;;9.40;5.13;;;;;;;;;;6242938;22;20176;-54
2024/01/30 02:33:21;;;;;;;11.53;5.53;;;;;;;;;;6242395;22;20144;-49
2024/01/30 02:35:47;;;;;;;8.00;5.37;;;;;;;;;;6242430;22;20189;-53
2024/01/30 02:38:13;;;;;;;6.53;4.83;;;;;;;;;;6243674;22;20245;-53
2024/01/30 02:40:39;;;;;;;6.23;5.07;;;;;;;;;;6270630;22;20128;-55
2024/01/30 02:43:06;;;;;;;7.60;5.03;;;;;;;;;;6244845;22;20214;-50
2024/01/30 02:45:32;;;;;;;10.47;5.60;;;;;;;;;;6244067;22;20179;-52
2024/01/30 02:47:58;;;;;;;6.00;4.93;;;;;;;;;;6271069;22;20140;-53
2024/01/30 02:50:24;;;;;;;10.23;4.70;;;;;;;;;;6244924;22;20140;-55
2024/01/30 02:52:50;;;;;;;7.20;5.03;;;;;;;;;;6244244;22;20151;-54
2024/01/30 02:55:19;;;;;;;8.40;4.97;;;;;;;;;;6242814;22;20211;-51
2024/01/30 02:57:45;;;;;;;6.90;4.50;;;;;;;;;;6243728;22;20170;-56
2024/01/30 03:00:12;;;;;;;9.77;5.87;;;;;;;;;;6244586;22;20501;-52
2024/01/30 03:02:38;;;;;;;10.10;5.17;;;;;;;;;;6271477;22;20180;-56
2024/01/30 03:05:04;;;;;;;8.10;5.73;;;;;;;;;;6244781;22;20305;-54
2024/01/30 03:07:30;;;;;;;7.87;5.50;;;;;;;;;;6243554;22;20175;-56
2024/01/30 03:09:56;;;;;;;9.87;5.53;;;;;;;;;;6245200;22;20230;-54
2024/01/30 03:12:22;;;;;;;8.70;6.40;;;;;;;;;;6270992;22;20128;-55
2024/01/30 03:14:49;;;;;;;10.60;5.57;;;;;;;;;;6245791;22;20163;-53
2024/01/30 03:17:15;;;;;;;7.60;5.50;;;;;;;;;;6245674;22;20139;-55
2024/01/30 03:19:41;;;;;;;7.37;5.60;;;;;;;;;;6273206;22;20124;-56
2024/01/30 03:22:07;;;;;;;7.77;5.40;;;;;;;;;;6246945;22;20148;-53
2024/01/30 03:24:33;;;;;;;7.47;5.33;;;;;;;;;;6246329;22;20187;-54
2024/01/30 03:26:59;;;;;;;8.17;5.53;;;;;;;;;;6272612;22;20227;-51
2024/01/30 03:29:25;;;;;;;8.63;5.70;;;;;;;;;;6246553;22;20144;-51
2024/01/30 03:31:51;;;;;;;7.20;5.00;;;;;;;;;;6273371;22;20124;-54
2024/01/30 03:34:17;;;;;;;8.97;5.70;;;;;;;;;;6247827;22;20148;-54
2024/01/30 03:36:43;;;;;;;8.30;5.60;;;;;;;;;;6247601;22;20148;-56
2024/01/30 03:39:09;;;;;;;6.93;5.07;;;;;;;;;;6247240;22;20539;-50
2024/01/30 03:41:36;;;;;;;7.23;5.13;;;;;;;;;;6247946;22;20155;-56
2024/01/30 03:44:02;;;;;;;8.37;5.53;;;;;;;;;;6246836;22;20204;-50
2024/01/30 03:46:28;;;;;;;7.03;5.57;;;;;;;;;;6248013;22;20447;-53
2024/01/30 03:48:54;;;;;;;6.27;5.50;;;;;;;;;;6247838;22;20540;-55
2024/01/30 03:51:20;;;;;;;9.60;6.00;;;;;;;;;;6272308;22;20152;-54
2024/01/30 03:53:46;;;;;;;7.13;5.43;;;;;;;;;;6246012;22;20160;-51
2024/01/30 03:56:13;;;;;;;8.43;5.60;;;;;;;;;;6246682;22;20137;-51
2024/01/30 03:58:39;;;;;;;7.87;5.53;;;;;;;;;;6245886;22;20132;-54
2024/01/30 04:01:05;;;;;;;10.97;5.93;;;;;;;;;;6245848;22;20156;-54
2024/01/30 04:03:31;;;;;;;6.07;5.13;;;;;;;;;;6245760;22;20591;-53
2024/01/30 04:05:57;;;;;;;7.77;5.67;;;;;;;;;;6246227;22;20172;-53
2024/01/30 04:08:23;;;;;;;7.50;5.60;;;;;;;;;;6245128;22;20321;-52
2024/01/30 04:10:49;;;;;;;7.77;6.10;;;;;;;;;;6246215;22;20202;-53
2024/01/30 04:13:15;;;;;;;10.63;6.80;;;;;;;;;;6245562;22;20141;-54
2024/01/30 04:15:41;;;;;;;10.07;5.40;;;;;;;;;;6271556;22;20144;-53
2024/01/30 04:18:07;;;;;;;7.97;6.03;;;;;;;;;;6244249;22;20145;-54
2024/01/30 04:20:33;;;;;;;8.97;5.93;;;;;;;;;;6244903;22;20140;-50
2024/01/30 04:22:59;;;;;;;9.37;5.97;;;;;;;;;;6244725;22;20240;-50
2024/01/30 04:25:25;;;;;;;8.23;5.93;;;;;;;;;;6243925;22;20228;-54
2024/01/30 04:27:51;;;;;;;9.37;6.00;;;;;;;;;;6244421;22;20136;-50
2024/01/30 04:30:17;;;;;;;6.23;5.63;;;;;;;;;;6244190;22;20245;-51
2024/01/30 04:32:44;;;;;;;9.70;6.80;;;;;;;;;;6244292;22;20137;-55
2024/01/30 04:35:10;;;;;;;11.80;6.43;;;;;;;;;;6250446;22;20366;-54
2024/01/30 04:37:36;;;;;;;8.20;6.53;;;;;;;;;;6245554;22;20224;-51
2024/01/30 04:40:03;;;;;;;8.87;6.33;;;;;;;;;;6245759;22;20296;-54
2024/01/30 04:42:28;;;;;;;9.40;6.60;;;;;;;;;;6248222;22;20143;-52
2024/01/30 04:44:54;;;;;;;8.57;6.57;;;;;;;;;;6273718;22;20156;-55
2024/01/30 04:47:20;;;;;;;8.23;6.80;;;;;;;;;;6248331;22;20137;-55
2024/01/30 04:49:47;;;;;;;8.00;6.30;;;;;;;;;;6272902;22;20143;-53
2024/01/30 04:52:13;;;;;;;10.70;6.67;;;;;;;;;;6246885;22;20578;-56
2024/01/30 04:54:39;;;;;;;7.30;5.93;;;;;;;;;;6273499;22;20498;-52
2024/01/30 04:57:09;;;;;;;10.37;6.33;;;;;;;;;;6246512;22;20155;-51
2024/01/30 04:59:35;;;;;;;7.53;5.77;;;;;;;;;;6270717;22;20125;-51
2024/01/30 05:02:01;;;;;;;8.83;6.67;;;;;;;;;;6271409;22;20196;-54
2024/01/30 05:04:27;;;;;;;9.10;6.50;;;;;;;;;;6272169;22;20182;-54
2024/01/30 05:06:53;;;;;;;8.83;5.63;;;;;;;;;;6273102;22;20132;-55
2024/01/30 05:09:19;;;;;;;10.23;7.00;;;;;;;;;;6244657;22;20215;-56
2024/01/30 05:11:45;;;;;;;9.43;6.07;;;;;;;;;;6245608;22;20172;-55
2024/01/30 05:14:11;;;;;;;8.90;6.87;;;;;;;;;;6274073;22;20541;-53
2024/01/30 05:16:38;;;;;;;8.93;6.90;;;;;;;;;;6246092;22;20282;-56
2024/01/30 05:19:04;;;;;;;8.67;5.67;;;;;;;;;;6245640;22;20156;-52
2024/01/30 05:21:29;;;;;;;9.60;6.57;;;;;;;;;;6272141;22;20516;-54
2024/01/30 05:23:55;;;;;;;8.47;6.70;;;;;;;;;;6272052;22;20215;-51
2024/01/30 05:26:22;;;;;;;9.63;6.63;;;;;;;;;;6271573;22;20125;-55
2024/01/30 05:28:48;;;;;;;10.20;7.20;;;;;;;;;;6245591;22;20464;-52
2024/01/30 05:31:14;;;;;;;8.30;6.33;;;;;;;;;;6272719;22;20295;-54
2024/01/30 05:33:41;;;;;;;8.87;6.73;;;;;;;;;;6245932;22;20374;-53
2024/01/30 05:36:07;;;;;;;10.33;6.93;;;;;;;;;;6245040;22;20313;-56
2024/01/30 05:38:33;;;;;;;9.80;6.90;;;;;;;;;;6244410;22;20148;-54
2024/01/30 05:40:59;;;;;;;8.90;6.00;;;;;;;;;;6242912;22;20498;-51
2024/01/30 05:43:26;;;;;;;8.97;6.70;;;;;;;;;;6268502;22;20129;-54
2024/01/30 05:45:52;;;;;;;9.23;7.33;;;;;;;;;;6243043;22;20274;-50
2024/01/30 05:48:18;;;;;;;9.47;7.20;;;;;;;;;;6243970;22;20143;-53
2024/01/30 05:50:45;;;;;;;11.17;6.97;;;;;;;;;;6244000;22;20156;-54
2024/01/30 05:53:11;;;;;;;8.20;6.50;;;;;;;;;;6269734;22;20199;-54
2024/01/30 05:55:37;;;;;;;8.60;6.80;;;;;;;;;;6242785;22;20272;-49
2024/01/30 05:58:03;;;;;;;16.70;7.33;;;;;;;;;;6242606;22;20136;-52
2024/01/30 06:00:30;;;;;;;11.53;7.67;;;;;;;;;;6242817;22;20148;-54
2024/01/30 06:02:56;;;;;;;10.23;7.57;;;;;;;;;;6221105;23;20583;-52
2024/01/30 06:05:22;;;;;;;11.80;7.47;;;;;;;;;;6207634;23;20183;-54
2024/01/30 06:07:47;;;;;;;12.77;7.00;;;;;;;;;;6206195;23;20219;-55
2024/01/30 06:10:13;;;;;;;9.97;7.50;;;;;;;;;;6206590;23;20429;-56
2024/01/30 06:12:40;;;;;;;11.80;7.93;;;;;;;;;;6206639;23;20382;-54
2024/01/30 06:15:06;;;;;;;9.93;7.33;;;;;;;;;;6206701;23;20439;-51
2024/01/30 06:17:32;;;;;;;10.43;7.23;;;;;;;;;;6207031;23;20356;-56
2024/01/30 06:19:59;;;;;;;12.00;7.40;;;;;;;;;;6209224;23;20130;-51
2024/01/30 06:22:25;;;;;;;11.73;7.23;;;;;;;;;;6207852;23;20352;-54
2024/01/30 06:24:51;;;;;;;10.83;7.40;;;;;;;;;;6208031;23;20559;-51
2024/01/30 06:27:17;;;;;;;12.57;7.50;;;;;;;;;;6209548;23;20130;-54
2024/01/30 06:29:44;;;;;;;12.07;8.30;;;;;;;;;;6206849;23;20141;-53
2024/01/30 06:32:10;;;;;;;9.63;7.73;;;;;;;;;;6206996;23;20226;-53
2024/01/30 06:34:36;;;;;;;13.43;7.47;;;;;;;;;;6205086;23;20150;-52
2024/01/30 06:37:02;;;;;;;12.43;7.93;;;;;;;;;;6203408;23;20241;-54
2024/01/30 06:39:28;;;;;;;13.63;7.77;;;;;;;;;;6206430;23;20382;-55
2024/01/30 06:41:54;;;;;;;10.00;7.43;;;;;;;;;;6206626;23;20145;-54
2024/01/30 06:44:20;;;;;;;10.67;7.57;;;;;;;;;;6209145;23;20232;-51
2024/01/30 06:46:46;;;;;;;10.73;7.67;;;;;;;;;;6207778;23;20149;-53
2024/01/30 06:49:12;;;;;;;10.70;7.50;;;;;;;;;;6208421;23;20270;-50
2024/01/30 06:51:38;;;;;;;10.40;7.80;;;;;;;;;;6205602;23;20138;-53
2024/01/30 06:54:04;;;;;;;10.10;7.27;;;;;;;;;;6206680;23;20145;-56
2024/01/30 06:56:30;;;;;;;9.90;7.60;;;;;;;;;;6207649;23;20400;-54
2024/01/30 06:58:58;;;;;;;10.20;7.17;;;;;;;;;;6205790;23;20533;-54
2024/01/30 07:01:28;;;;;;;9.83;7.33;;;;;;;;;;6203484;23;20142;-53
2024/01/30 07:03:54;;;;;;;15.53;8.03;;;;;;;;;;6201055;23;20200;-55
2024/01/30 07:06:22;;;;;;;11.70;7.23;;;;;;;;;;6204332;23;20240;-52
2024/01/30 07:08:48;;;;;;;11.13;6.73;;;;;;;;;;6203514;23;20273;-55
2024/01/30 07:11:19;;;;;;;9.80;7.60;;;;;;;;;;6201337;23;20142;-51
2024/01/30 07:13:46;;;;;;;11.20;7.93;;;;;;;;;;6202328;23;20208;-54
2024/01/30 07:16:12;;;;;;;10.63;7.60;;;;;;;;;;6206102;23;20154;-54
2024/01/30 07:18:38;;;;;;;9.20;7.27;;;;;;;;;;6207518;23;20340;-49
2024/01/30 07:21:04;;;;;;;16.13;7.43;;;;;;;;;;6205914;23;20138;-53
2024/01/30 07:23:30;;;;;;;12.37;7.27;;;;;;;;;;6204581;23;20204;-50
2024/01/30 07:25:56;;;;;;;11.20;8.03;;;;;;;;;;6204391;23;20195;-50
2024/01/30 07:28:22;;;;;;;11.50;8.10;;;;;;;;;;6203358;23;20169;-54
2024/01/30 07:30:48;;;;;;;10.17;8.00;;;;;;;;;;6201107;23;20141;-55
2024/01/30 07:33:14;;;;;;;13.33;7.83;;;;;;;;;;6200489;23;20204;-56
2024/01/30 07:35:40;;;;;;;11.17;7.73;;;;;;;;;;6200806;23;20808;-56
2024/01/30 07:38:07;;;;;;;11.80;8.40;;;;;;;;;;6203915;23;20324;-55
2024/01/30 07:40:35;;;;;;;12.90;7.87;;;;;;;;;;6203930;23;20268;-52
2024/01/30 07:43:03;;;;;;;12.67;8.20;;;;;;;;;;6203524;23;20233;-55
2024/01/30 07:45:32;;;;;;;17.27;9.73;;;;;;;;;;6204399;23;20259;-54
2024/01/30 07:47:59;;;;;;;11.93;8.40;;;;;;;;;;6205159;23;20142;-52
2024/01/30 07:50:25;;;;;;;13.37;9.33;;;;;;;;;;6205708;23;20137;-53
2024/01/30 07:52:54;;;;;;;13.10;8.50;;;;;;;;;;6208204;23;20184;-52
2024/01/30 07:55:21;;;;;;;11.63;8.23;;;;;;;;;;6210492;23;20205;-53
2024/01/30 07:57:47;;;;;;;12.13;8.07;;;;;;;;;;6212281;23;20145;-54
2024/01/30 08:00:14;;;;;;;12.60;8.83;;;;;;;;;;6212594;23;20146;-55
2024/01/30 08:02:40;;;;;;;16.90;8.77;;;;;;;;;;6211044;23;20193;-54
2024/01/30 08:05:06;;;;;;;11.03;8.07;;;;;;;;;;6211719;23;20161;-54
2024/01/30 08:07:32;;;;;;;12.20;8.17;;;;;;;;;;6210483;23;20149;-57
2024/01/30 08:09:58;;;;;;;11.70;7.83;;;;;;;;;;6209807;23;20473;-55
2024/01/30 08:12:23;;;;;;;11.47;8.17;;;;;;;;;;6209203;23;20677;-51
2024/01/30 08:14:49;;;;;;;11.73;8.40;;;;;;;;;;6210748;23;20150;-51
2024/01/30 08:17:15;;;;;;;13.40;8.97;;;;;;;;;;6211894;23;20261;-53
2024/01/30 08:19:41;;;;;;;11.03;8.70;;;;;;;;;;6211275;23;20161;-56
2024/01/30 08:22:07;;;;;;;13.27;8.20;;;;;;;;;;6212241;23;20160;-52
2024/01/30 08:24:33;;;;;;;10.93;8.73;;;;;;;;;;6212969;23;20212;-52
2024/01/30 08:27:02;;;;;;;9.67;7.63;;;;;;;;;;6213450;23;20148;-52
2024/01/30 08:29:29;;;;;;;10.07;7.80;;;;;;;;;;6213451;23;20313;-53
2024/01/30 08:31:55;;;;;;;13.93;8.93;;;;;;;;;;6213561;23;20157;-52
2024/01/30 08:34:21;;;;;;;13.30;8.90;;;;;;;;;;6213572;23;20480;-54
2024/01/30 08:36:47;;;;;;;11.53;8.77;;;;;;;;;;6212296;23;20511;-53
2024/01/30 08:39:14;;;;;;;15.67;9.97;;;;;;;;;;6211983;23;20142;-54
2024/01/30 08:41:40;;;;;;;11.37;8.80;;;;;;;;;;6213609;23;20141;-51
2024/01/30 08:44:07;;;;;;;11.10;8.43;;;;;;;;;;6212319;23;20731;-56
2024/01/30 08:46:33;;;;;;;11.50;8.97;;;;;;;;;;6212709;23;20664;-54
2024/01/30 08:48:59;;;;;;;12.83;8.83;;;;;;;;;;6211571;23;20153;-54
2024/01/30 08:51:25;;;;;;;11.03;8.63;;;;;;;;;;6212741;23;20126;-52
2024/01/30 08:53:52;;;;;;;13.10;8.10;;;;;;;;;;6210740;23;20225;-53
2024/01/30 08:56:18;;;;;;;13.80;8.83;;;;;;;;;;6208937;23;20184;-54
2024/01/30 08:58:44;;;;;;;17.03;9.50;;;;;;;;;;6209728;23;20141;-52
2024/01/30 09:01:10;;;;;;;11.00;8.73;;;;;;;;;;6208811;23;20173;-53
2024/01/30 09:03:39;;;;;;;11.70;9.13;;;;;;;;;;6210257;23;20204;-53
2024/01/30 09:06:08;;;;;;;11.43;9.10;;;;;;;;;;6209771;23;20170;-50
2024/01/30 09:08:35;;;;;;;12.03;10.20;;;;;;;;;;6208448;23;20134;-54
2024/01/30 09:11:00;;;;;;;11.60;8.77;;;;;;;;;;6209043;23;20214;-54
2024/01/30 09:13:26;;;;;;;14.77;8.67;;;;;;;;;;6208824;23;20133;-52
2024/01/30 09:15:52;;;;;;;13.33;8.97;;;;;;;;;;6210123;23;20637;-50
2024/01/30 09:18:19;;;;;;;13.17;9.83;;;;;;;;;;6209232;23;20146;-56
2024/01/30 09:20:47;;;;;;;12.57;9.33;;;;;;;;;;6210018;23;20170;-56
2024/01/30 09:23:14;;;;;;;17.27;9.60;;;;;;;;;;6210923;23;20228;-52
2024/01/30 09:25:40;;;;;;;16.43;9.60;;;;;;;;;;6210944;23;20169;-55
2024/01/30 09:28:06;;;;;;;13.10;9.33;;;;;;;;;;6210921;23;20138;-56
2024/01/30 09:30:32;;;;;;;15.90;10.40;;;;;;;;;;6210302;23;20176;-56
2024/01/30 09:32:58;;;;;;;17.73;9.70;;;;;;;;;;6210889;23;20142;-51
2024/01/30 09:35:24;;;;;;;12.37;9.20;;;;;;;;;;6210174;23;20142;-55
2024/01/30 09:37:52;;;;;;;17.07;10.37;;;;;;;;;;6210985;23;20157;-52
2024/01/30 09:40:19;;;;;;;12.93;9.87;;;;;;;;;;6211600;23;20145;-56
2024/01/30 09:42:48;;;;;;;14.87;10.23;;;;;;;;;;6211363;23;20138;-55
2024/01/30 09:45:14;;;;;;;13.60;10.07;;;;;;;;;;6211514;23;20491;-56
2024/01/30 09:47:44;;;;;;;12.37;9.60;;;;;;;;;;6211152;23;20235;-55
2024/01/30 09:50:10;;;;;;;13.17;9.43;;;;;;;;;;6212300;23;20133;-53
2024/01/30 09:52:37;;;;;;;10.07;8.50;;;;;;;;;;6211263;23;20191;-56
2024/01/30 09:55:03;;;;;;;18.40;10.63;;;;;;;;;;6211281;23;20212;-51
2024/01/30 09:57:29;;;;;;;12.43;9.60;;;;;;;;;;6212746;23;20148;-50
2024/01/30 09:59:56;;;;;;;12.63;9.27;;;;;;;;;;6212816;23;20165;-53
2024/01/30 10:02:22;;;;;;;12.23;9.73;;;;;;;;;;6210629;23;20605;-52
2024/01/30 10:04:52;;;;;;;16.03;10.67;;;;;;;;;;6211382;23;20621;-54
2024/01/30 10:07:18;;;;;;;17.77;9.53;;;;;;;;;;6210174;23;20145;-51
2024/01/30 10:09:45;;;;;;;11.90;8.83;;;;;;;;;;6211353;23;20150;-53
2024/01/30 10:12:14;;;;;;;13.20;9.33;;;;;;;;;;6208497;23;20146;-51
2024/01/30 10:14:40;;;;;;;14.63;9.53;;;;;;;;;;6212115;23;20396;-55
2024/01/30 10:17:07;;;;;;;12.73;9.67;;;;;;;;;;6211451;23;20153;-55
2024/01/30 10:19:33;;;;;;;13.03;9.27;;;;;;;;;;6209811;23;20188;-51
2024/01/30 10:22:00;;;;;;;12.70;9.63;;;;;;;;;;6211376;23;20153;-54
2024/01/30 10:24:26;;;;;;;13.60;8.57;;;;;;;;;;6210904;23;20157;-54
2024/01/30 10:26:54;;;;;;;9.77;8.50;;;;;;;;;;6211521;23;20207;-52
2024/01/30 10:29:19;;;;;;;12.50;9.27;;;;;;;;;;6210072;23;20172;-54
2024/01/30 10:31:46;;;;;;;14.27;10.13;;;;;;;;;;6210786;23;20149;-53
2024/01/30 10:34:12;;;;;;;17.27;9.97;;;;;;;;;;6209386;23;20145;-60
2024/01/30 10:36:43;;;;;;;11.03;8.70;;;;;;;;;;6210147;23;20211;-59
2024/01/30 10:39:10;;;;;;;12.27;8.90;;;;;;;;;;6212265;23;20141;-59
2024/01/30 10:41:42;;;;;;;9.40;8.20;;;;;;;;;;6211989;23;20168;-56
2024/01/30 10:44:10;;;;;;;13.10;9.23;;;;;;;;;;6212902;23;20169;-52
2024/01/30 10:46:37;;;;;;;10.23;8.03;;;;;;;;;;6212761;23;20600;-56
2024/01/30 10:49:04;;;;;;;12.67;8.97;;;;;;;;;;6213144;23;20414;-57
2024/01/30 10:51:31;;;;;;;11.90;9.57;;;;;;;;;;6212326;23;20146;-57
2024/01/30 10:53:57;;;;;;;12.13;8.77;;;;;;;;;;6211029;23;20223;-57
2024/01/30 10:56:24;;;;;;;9.53;7.70;;;;;;;;;;6211347;23;20581;-56
2024/01/30 10:58:52;;;;;;;11.43;7.73;;;;;;;;;;6212611;23;20125;-53
2024/01/30 11:01:18;;;;;;;10.90;8.23;;;;;;;;;;6211331;23;20672;-56
2024/01/30 11:03:44;;;;;;;11.10;7.80;;;;;;;;;;6211909;23;20281;-55
2024/01/30 11:06:18;;;;;;;18.23;10.50;;;;;;;;;;6205171;23;20614;-55
2024/01/30 11:08:44;;;;;;;10.57;8.40;;;;;;;;;;6205291;23;20413;-55
2024/01/30 11:11:10;;;;;;;10.57;9.10;;;;;;;;;;6205388;23;20187;-52
2024/01/30 11:13:36;;;;;;;10.73;8.73;;;;;;;;;;6205433;23;20130;-54
2024/01/30 11:16:03;;;;;;;12.17;9.57;;;;;;;;;;6204467;23;20206;-54
2024/01/30 11:18:32;;;;;;;11.33;8.80;;;;;;;;;;6206528;23;20134;-56
2024/01/30 11:21:01;;;;;;;13.07;8.53;;;;;;;;;;6206728;23;20149;-55
2024/01/30 11:23:28;;;;;;;13.73;8.67;;;;;;;;;;6206690;23;20141;-55
2024/01/30 11:25:54;;;;;;;14.50;8.97;;;;;;;;;;6206578;23;20175;-53
2024/01/30 11:28:21;;;;;;;12.67;9.33;;;;;;;;;;6204828;23;20213;-52
2024/01/30 11:30:50;;;;;;;11.13;8.37;;;;;;;;;;6207661;23;20142;-52
2024/01/30 11:33:27;;;;;;;10.83;8.63;;;;;;;;;;6204797;23;20153;-54
2024/01/30 11:35:53;;;;;;;9.47;8.47;;;;;;;;;;6203874;23;20152;-55
2024/01/30 11:38:19;;;;;;;12.63;8.93;;;;;;;;;;6204918;23;20164;-55
2024/01/30 11:40:45;;;;;;;10.20;7.53;;;;;;;;;;6207070;23;20524;-55
2024/01/30 11:43:11;;;;;;;14.20;9.60;;;;;;;;;;6206068;23;20229;-53
2024/01/30 11:45:39;;;;;;;14.73;9.00;;;;;;;;;;6210330;23;20181;-54
2024/01/30 11:48:05;;;;;;;14.37;8.80;;;;;;;;;;6209366;23;20149;-54
2024/01/30 11:50:32;;;;;;;11.10;7.87;;;;;;;;;;6209964;23;20126;-57
2024/01/30 11:52:58;;;;;;;11.97;8.57;;;;;;;;;;6209356;23;20410;-56
2024/01/30 11:55:24;;;;;;;18.90;9.23;;;;;;;;;;6208261;23;20134;-52
2024/01/30 11:57:50;;;;;;;14.30;9.00;;;;;;;;;;6207928;23;20137;-52
2024/01/30 12:00:18;;;;;;;13.63;8.60;;;;;;;;;;6209441;23;20146;-53
2024/01/30 12:02:44;;;;;;;12.40;8.40;;;;;;;;;;6209343;23;20194;-51
2024/01/30 12:05:10;;;;;;;13.30;8.57;;;;;;;;;;6211414;23;20248;-56
2024/01/30 12:07:37;;;;;;;12.20;8.03;;;;;;;;;;6210847;23;20146;-52
2024/01/30 12:10:03;;;;;;;9.17;7.27;;;;;;;;;;6211195;23;20148;-56
2024/01/30 12:12:29;;;;;;;11.67;7.90;;;;;;;;;;6210178;23;20228;-55
2024/01/30 12:14:56;;;;;;;12.67;8.50;;;;;;;;;;6211410;23;20129;-56
2024/01/30 12:17:25;;;;;;;12.70;8.23;;;;;;;;;;6211077;23;20530;-49
2024/01/30 12:19:51;;;;;;;14.00;8.57;;;;;;;;;;6208475;23;20146;-53
2024/01/30 12:22:17;;;;;;;13.40;8.90;;;;;;;;;;6209231;23;20203;-55
2024/01/30 12:24:43;;;;;;;15.87;8.23;;;;;;;;;;6209077;23;20173;-54
2024/01/30 12:27:09;;;;;;;12.63;9.10;;;;;;;;;;6209584;23;20142;-56
2024/01/30 12:29:47;;;;;;;14.03;8.97;;;;;;;;;;6208418;23;20235;-50
2024/01/30 12:32:16;;;;;;;11.53;8.50;;;;;;;;;;6211976;23;20295;-52
2024/01/30 12:34:42;;;;;;;12.63;8.33;;;;;;;;;;6213127;23;20188;-52
2024/01/30 12:37:09;;;;;;;12.47;8.73;;;;;;;;;;6212787;23;20134;-54
2024/01/30 12:39:35;;;;;;;15.43;9.63;;;;;;;;;;6212203;23;20199;-55
2024/01/30 12:42:03;;;;;;;13.63;8.23;;;;;;;;;;6210859;23;20196;-55
2024/01/30 12:44:29;;;;;;;14.90;9.20;;;;;;;;;;6208952;23;20263;-53
2024/01/30 12:46:55;;;;;;;14.60;9.37;;;;;;;;;;6211694;23;20149;-55
2024/01/30 12:49:21;;;;;;;13.43;9.07;;;;;;;;;;6209281;23;20146;-54
2024/01/30 12:51:47;;;;;;;14.47;9.10;;;;;;;;;;6210435;23;20142;-53
2024/01/30 12:54:13;;;;;;;13.23;8.80;;;;;;;;;;6209300;23;20148;-56
2024/01/30 12:56:39;;;;;;;15.03;9.50;;;;;;;;;;6209605;23;20557;-57
2024/01/30 12:59:05;;;;;;;11.37;9.00;;;;;;;;;;6208678;23;20212;-54
2024/01/30 13:01:31;;;;;;;13.53;8.63;;;;;;;;;;6206932;23;20142;-51
2024/01/30 13:03:58;;;;;;;14.53;8.97;;;;;;;;;;6266418;22;20191;-57
2024/01/30 13:06:25;;;;;;;13.10;8.33;;;;;;;;;;6239601;22;20144;-53
2024/01/30 13:08:53;;;;;;;13.90;8.00;;;;;;;;;;6239825;22;20141;-51
2024/01/30 13:11:19;;;;;;;11.67;7.97;;;;;;;;;;6240491;22;20152;-54
2024/01/30 13:13:45;;;;;;;11.93;8.23;;;;;;;;;;6265752;22;20437;-56
2024/01/30 13:16:11;;;;;;;14.47;8.60;;;;;;;;;;6236774;22;20616;-54
2024/01/30 13:18:37;;;;;;;14.63;7.77;;;;;;;;;;6238445;22;20152;-52
2024/01/30 13:21:05;;;;;;;10.23;7.77;;;;;;;;;;6267999;22;20137;-55
2024/01/30 13:23:31;;;;;;;13.40;8.23;;;;;;;;;;6243762;22;20254;-55
2024/01/30 13:25:58;;;;;;;11.43;7.63;;;;;;;;;;6243353;22;20203;-54
2024/01/30 13:28:25;;;;;;;12.57;7.47;;;;;;;;;;6242846;22;20133;-54
2024/01/30 13:30:52;;;;;;;11.77;8.40;;;;;;;;;;6268222;22;20139;-55
2024/01/30 13:33:18;;;;;;;10.97;7.53;;;;;;;;;;6236828;22;20149;-53
2024/01/30 13:35:45;;;;;;;12.07;7.63;;;;;;;;;;6236075;22;20151;-53
2024/01/30 13:38:11;;;;;;;13.20;7.93;;;;;;;;;;6261789;22;20128;-56
2024/01/30 13:40:37;;;;;;;14.57;7.57;;;;;;;;;;6235344;22;20144;-54
2024/01/30 13:43:03;;;;;;;12.83;8.47;;;;;;;;;;6237201;22;20342;-52
2024/01/30 13:45:30;;;;;;;14.43;8.37;;;;;;;;;;6237024;22;20476;-54
2024/01/30 13:47:56;;;;;;;11.97;7.73;;;;;;;;;;6264447;22;20144;-51
2024/01/30 13:50:22;;;;;;;16.17;8.83;;;;;;;;;;6237710;22;20202;-51
2024/01/30 13:52:48;;;;;;;11.77;7.77;;;;;;;;;;6238905;22;20140;-56
2024/01/30 13:55:14;;;;;;;9.83;7.33;;;;;;;;;;6240303;22;20140;-55
2024/01/30 13:57:41;;;;;;;14.50;8.00;;;;;;;;;;6267948;22;20414;-53
2024/01/30 14:00:08;;;;;;;11.70;8.00;;;;;;;;;;6238290;22;20152;-55
2024/01/30 14:02:34;;;;;;;14.53;7.77;;;;;;;;;;6222484;23;20465;-51
2024/01/30 14:05:00;;;;;;;11.90;7.50;;;;;;;;;;6204652;23;20189;-52
2024/01/30 14:07:26;;;;;;;9.33;7.30;;;;;;;;;;6202359;23;20138;-49
2024/01/30 14:09:53;;;;;;;10.40;7.27;;;;;;;;;;6201984;23;20148;-53
2024/01/30 14:12:19;;;;;;;11.20;8.23;;;;;;;;;;6200341;23;20153;-55
2024/01/30 14:14:45;;;;;;;15.33;7.83;;;;;;;;;;6200060;23;20146;-56
2024/01/30 14:17:11;;;;;;;15.13;8.17;;;;;;;;;;6201456;23;20156;-51
2024/01/30 14:19:37;;;;;;;11.93;7.20;;;;;;;;;;6202094;23;20145;-55
2024/01/30 14:22:03;;;;;;;9.93;7.33;;;;;;;;;;6203875;23;20480;-55
2024/01/30 14:24:29;;;;;;;9.93;7.37;;;;;;;;;;6206186;23;20555;-53
2024/01/30 14:26:55;;;;;;;12.30;7.83;;;;;;;;;;6211672;23;20187;-51
2024/01/30 14:29:21;;;;;;;17.17;8.50;;;;;;;;;;6211669;23;20167;-52
2024/01/30 14:31:47;;;;;;;18.77;8.10;;;;;;;;;;6211445;23;20208;-54